Flight Track Log - Related Links

Times and Time Zones

All times are in EST time to prevent confusion due to time zone crossing. See the N36VE flight status page for this flight to view local times or setup timezone preferences in your user account.

Time Position Orientation Groundspeed Altitude Reporting Facility
EST Latitude Longitude Course Direction KTS MPH feet Rate Location/Type
Fri 11:07:19 39.7131 -95.4097 305° West 177 204 5,100  Level Kansas City Center
Fri 11:08:19 39.7336 -95.4478 305° West 148 170 5,700 450 Climbing Kansas City Center
Fri 11:09:19 39.7561 -95.4883 306° West 143 165 6,000 200 Climbing Kansas City Center
Fri 11:10:19 39.7850 -95.5403 306° West 154 177 6,100  Climbing Kansas City Center
Fri 11:11:19 39.8117 -95.5892 305° West 160 184 6,000 -50 Descending Kansas City Center
Fri 11:12:19 39.8383 -95.6328 309° West 171 197 6,000  Level Kansas City Center
Fri 11:13:19 39.8650 -95.6847 304° West 176 203 6,000 -57 Level Kansas City Center
Fri 11:14:04 39.8883 -95.7272 306° West 170 196 5,900 -56 Descending Minneapolis Center
Fri 11:15:06 39.9161 -95.7778 306° West 171 197 5,900 49 Level Minneapolis Center
Fri 11:16:07 39.9428 -95.8286 304° West 171 197 6,000 49 Climbing Minneapolis Center
Fri 11:17:09 39.9703 -95.8775 306° West 169 194 6,000  Level Minneapolis Center
Fri 11:18:11 39.9983 -95.9275 306° West 170 196 6,000  Level Minneapolis Center
Fri 11:19:12 40.0256 -95.9778 305° West 170 196 6,000  Level Minneapolis Center
Fri 11:20:14 40.0536 -96.0297 305° West 171 197 6,000  Level Minneapolis Center
Fri 11:21:15 40.0864 -96.0911 305° West 171 197 6,000  Level Minneapolis Center
Fri 11:22:17 40.1139 -96.1414 306° West 171 197 6,000  Level Minneapolis Center
Fri 11:23:18 40.1419 -96.1933 305° West 172 198 6,000  Level Minneapolis Center
Fri 11:24:20 40.1703 -96.2467 305° West 174 200 6,000  Level Minneapolis Center
Fri 11:25:21 40.1992 -96.2989 306° West 176 203 6,000  Level Minneapolis Center
Fri 11:26:23 40.2267 -96.3519 304° West 176 203 6,000  Level Minneapolis Center
Fri 11:27:10 40.2447 -96.3778 312° West 179 206 6,000  Level Minneapolis Center
Fri 11:28:26 40.2839 -96.4583 303° West 177 204 6,000  Level Minneapolis Center
Fri 11:29:27 40.3119 -96.5106 305° West 177 204 6,000  Level Minneapolis Center
Fri 11:30:28 40.3400 -96.5642 304° West 177 204 6,000  Level Minneapolis Center
Fri 11:31:30 40.3750 -96.6289 305° West 179 206 6,000  Level Minneapolis Center
Fri 11:32:31 40.4031 -96.6831 304° West 179 206 6,000  Level Minneapolis Center
Fri 11:33:33 40.4319 -96.7364 305° West 179 206 6,000  Level Minneapolis Center
Fri 11:34:34 40.4611 -96.7917 305° West 181 208 6,000  Level Minneapolis Center
Fri 11:35:35 40.4906 -96.8472 305° West 183 211 6,000  Level Minneapolis Center
Fri 11:36:37 40.5194 -96.9014 305° West 181 208 6,000  Level Minneapolis Center
Fri 11:37:38 40.5486 -96.9561 305° West 182 209 6,000  Level Minneapolis Center
Fri 11:38:40 40.5772 -97.0125 304° West 184 212 6,000  Level Minneapolis Center
Fri 11:39:41 40.6067 -97.0675 305° West 184 212 6,000  Level Minneapolis Center
Fri 11:40:42 40.6417 -97.1331 305° West 183 211 6,000  Level Minneapolis Center
Fri 11:41:44 40.6819 -97.1761 321° Northwest 192 221 6,000  Level Minneapolis Center
Fri 11:42:45 40.7258 -97.2158 326° Northwest 189 217 6,000  Level Minneapolis Center
Fri 11:43:47 40.7714 -97.2564 326° Northwest 199 229 6,000  Level Minneapolis Center
Fri 11:44:48 40.8164 -97.2947 327° Northwest 195 224 6,000  Level Minneapolis Center
Fri 11:45:49 40.8628 -97.3344 327° Northwest 196 226 6,000  Level Minneapolis Center
Fri 11:46:51 40.9092 -97.3764 326° Northwest 196 226 6,000  Level Minneapolis Center
Fri 11:47:52 40.9569 -97.4161 328° Northwest 199 229 6,000 -197 Level Minneapolis Center
Fri 11:48:53 41.0031 -97.4572 326° Northwest 199 229 5,600 -439 Descending Minneapolis Center
Fri 11:49:55 41.0494 -97.4981 326° Northwest 200 230 5,100 -537 Descending Minneapolis Center
Fri 11:50:56 41.0908 -97.5406 322° Northwest 194 223 4,500 -492 Descending Minneapolis Center
Fri 11:51:57 41.0875 -97.6056 266° West 144 166 4,100 -244 Descending Minneapolis Center
Fri 11:52:59 41.0811 -97.6419 257° West 108 124 4,000 -293 Descending Minneapolis Center
Fri 11:54:00 41.0533 -97.6400 177° South 109 125 3,500 -293 Descending Minneapolis Center
Fri 11:55:02 41.0306 -97.6342 169° South 104 120 3,400 -146 Descending Minneapolis Center
Fri 11:56:03 41.0067 -97.6367 185° South 105 121 3,200 -98 Descending Minneapolis Center
Fri 11:57:04 40.9839 -97.6325 172° South 88 101 3,200 -98 Level Minneapolis Center
Fri 11:58:06 40.9611 -97.6303 176° South 88 101 3,000 -194 Descending Minneapolis Center
Fri 12:00:00 40.8964 -97.6241 176° South  Level Estimated
Fri 12:07:00 40.8964 -97.6241 176° South  Level Estimated
Fri 12:08:00 40.8964 -97.6241 176° South  Level Estimated
Fri 12:09:00 40.8964 -97.6241 176° South  Level Estimated
Fri 12:10:00 40.8964 -97.6241 176° South  Level Estimated
Fri 12:11:00 40.8964 -97.6241 176° South  Level Estimated

Login

Don't have an account? Register now (free) for customized features, flight alerts, and more!